createdAt,value
2022-10-28T00:00:14.161Z,10.72
2022-10-28T00:02:43.754Z,10.81
2022-10-28T00:05:13.243Z,10.67
2022-10-28T00:07:42.776Z,10.79
2022-10-28T00:10:12.290Z,10.67
2022-10-28T00:12:44.201Z,10.72
2022-10-28T00:15:14.215Z,10.71
2022-10-28T00:17:43.713Z,10.69
2022-10-28T00:20:13.240Z,10.74
2022-10-28T00:22:42.839Z,10.84
2022-10-28T00:25:12.462Z,10.70
2022-10-28T00:27:44.082Z,10.70
2022-10-28T00:30:15.111Z,10.72
2022-10-28T00:32:44.601Z,10.68
2022-10-28T00:35:14.075Z,10.65
2022-10-28T00:37:44.166Z,10.54
2022-10-28T00:40:13.757Z,10.61
2022-10-28T00:42:43.294Z,10.61
2022-10-28T00:45:12.975Z,10.66
2022-10-28T00:47:52.279Z,10.54
2022-10-28T00:50:31.355Z,10.55
2022-10-28T00:53:02.912Z,10.69
2022-10-28T00:55:32.931Z,10.75
2022-10-28T00:58:03.745Z,10.73
2022-10-28T01:00:33.352Z,10.77
2022-10-28T01:03:04.466Z,10.78
2022-10-28T01:05:35.878Z,10.78
2022-10-28T01:08:07.485Z,10.79
2022-10-28T01:10:43.990Z,10.82
2022-10-28T01:13:20.042Z,10.83
2022-10-28T01:15:52.723Z,10.58
2022-10-28T01:18:30.020Z,10.66
2022-10-28T01:21:20.317Z,10.72
2022-10-28T01:23:57.733Z,10.57
2022-10-28T01:26:45.129Z,10.69
2022-10-28T01:29:31.289Z,10.72
2022-10-28T01:32:05.626Z,10.59
2022-10-28T01:34:38.235Z,10.54
2022-10-28T01:37:12.644Z,10.57
2022-10-28T01:39:46.697Z,10.61
2022-10-28T01:42:23.668Z,10.56
2022-10-28T01:44:55.179Z,10.53
2022-10-28T01:47:27.794Z,10.55
2022-10-28T01:50:00.014Z,10.54
2022-10-28T01:52:31.441Z,10.45
2022-10-28T01:55:03.347Z,10.49
2022-10-28T01:57:34.592Z,10.53
2022-10-28T02:00:04.794Z,10.45
2022-10-28T02:02:37.338Z,10.52
2022-10-28T02:05:08.090Z,10.60
2022-10-28T02:07:38.665Z,10.49
2022-10-28T02:10:11.570Z,10.50
2022-10-28T02:12:41.810Z,10.39
2022-10-28T02:15:26.566Z,10.44
2022-10-28T02:18:03.849Z,10.40
2022-10-28T02:20:35.901Z,10.43
2022-10-28T02:23:11.804Z,10.38
2022-10-28T02:25:44.298Z,10.34
2022-10-28T02:28:17.656Z,10.38
2022-10-28T02:30:49.630Z,10.40
2022-10-28T02:33:23.591Z,10.37
2022-10-28T02:35:55.769Z,10.31
2022-10-28T02:38:28.331Z,10.30
2022-10-28T02:41:00.727Z,10.26
2022-10-28T02:43:31.843Z,10.22
2022-10-28T02:46:05.907Z,10.06
2022-10-28T02:48:39.551Z,10.16
2022-10-28T02:51:11.430Z,10.13
2022-10-28T02:53:46.722Z,10.14
2022-10-28T02:56:17.407Z,10.03
2022-10-28T02:58:47.208Z,9.94
2022-10-28T03:01:16.896Z,10.06
2022-10-28T03:03:47.932Z,10.06
2022-10-28T03:06:17.513Z,9.94
2022-10-28T03:08:47.035Z,9.86
2022-10-28T03:11:16.617Z,10.03
2022-10-28T03:13:46.599Z,10.09
2022-10-28T03:16:16.501Z,10.07
2022-10-28T03:18:46.080Z,10.02
2022-10-28T03:21:16.928Z,10.05
2022-10-28T03:23:46.374Z,10.06
2022-10-28T03:26:15.957Z,9.97
2022-10-28T03:28:45.826Z,9.99
2022-10-28T03:31:15.834Z,9.93
2022-10-28T03:33:45.327Z,9.87
2022-10-28T03:36:14.862Z,9.86
2022-10-28T03:38:45.766Z,9.87
2022-10-28T03:41:15.270Z,9.78
2022-10-28T03:43:45.035Z,9.83
2022-10-28T03:46:14.754Z,9.91
2022-10-28T03:48:44.407Z,9.94
2022-10-28T03:51:13.899Z,9.88
2022-10-28T03:53:43.369Z,9.94
2022-10-28T03:56:14.410Z,9.98
2022-10-28T03:58:44.015Z,10.09
2022-10-28T04:01:13.702Z,10.15
2022-10-28T04:03:43.277Z,10.15
2022-10-28T04:06:12.761Z,10.25
2022-10-28T04:08:42.549Z,10.34
2022-10-28T04:11:12.202Z,10.34
2022-10-28T04:13:43.523Z,10.48
2022-10-28T04:16:13.467Z,10.55
2022-10-28T04:18:42.951Z,10.59
2022-10-28T04:21:13.269Z,10.60
2022-10-28T04:23:42.766Z,10.52
2022-10-28T04:26:12.285Z,10.60
2022-10-28T04:28:43.143Z,10.72
2022-10-28T04:31:13.270Z,10.65
2022-10-28T04:33:42.790Z,10.72
2022-10-28T04:36:13.671Z,10.82
2022-10-28T04:38:43.323Z,10.89
2022-10-28T04:41:13.766Z,10.94
2022-10-28T04:43:44.825Z,10.99
2022-10-28T04:46:14.378Z,10.95
2022-10-28T04:48:43.863Z,10.96
2022-10-28T04:51:13.680Z,10.91
2022-10-28T04:53:43.262Z,11.01
2022-10-28T04:56:12.955Z,11.03
2022-10-28T04:58:42.754Z,11.02
2022-10-28T05:01:13.836Z,11.00
2022-10-28T05:03:43.531Z,11.04
2022-10-28T05:06:13.019Z,11.11
2022-10-28T05:08:42.718Z,11.16
2022-10-28T05:11:12.265Z,11.07
2022-10-28T05:13:42.437Z,11.17
2022-10-28T05:16:13.714Z,11.10
2022-10-28T05:21:18.043Z,11.23
2022-10-28T05:23:47.717Z,11.14
2022-10-28T05:26:17.461Z,11.17
2022-10-28T05:28:50.085Z,11.14
2022-10-28T05:31:20.983Z,11.20
2022-10-28T05:33:50.875Z,11.26
2022-10-28T05:36:20.478Z,11.30
2022-10-28T05:38:50.080Z,11.33
2022-10-28T05:41:19.592Z,11.31
2022-10-28T05:43:49.163Z,11.37
2022-10-28T05:46:18.715Z,11.44
2022-10-28T05:48:49.710Z,11.50
2022-10-28T05:51:19.416Z,11.49
2022-10-28T05:53:50.978Z,11.49
2022-10-28T05:56:20.692Z,11.60
2022-10-28T06:01:26.261Z,11.70
2022-10-28T06:03:57.494Z,11.61
2022-10-28T06:06:29.051Z,11.59
2022-10-28T06:08:58.660Z,11.68
2022-10-28T06:11:27.897Z,11.74
2022-10-28T06:13:57.504Z,11.76
2022-10-28T06:16:27.369Z,11.76
2022-10-28T06:18:58.270Z,11.80
2022-10-28T06:21:27.926Z,11.77
2022-10-28T06:23:57.361Z,11.87
2022-10-28T06:26:28.200Z,11.88
2022-10-28T06:28:57.948Z,11.91
2022-10-28T06:31:27.696Z,11.92
2022-10-28T06:33:58.684Z,11.93
2022-10-28T06:36:28.196Z,11.94
2022-10-28T06:38:57.841Z,11.98
2022-10-28T06:41:27.406Z,11.95
2022-10-28T06:43:57.474Z,12.02
2022-10-28T06:46:27.397Z,11.99
2022-10-28T06:49:03.147Z,12.06
2022-10-28T06:51:33.164Z,12.12
2022-10-28T06:54:02.669Z,12.23
2022-10-28T06:56:32.489Z,12.35
2022-10-28T06:59:01.921Z,12.40
2022-10-28T07:01:31.547Z,12.45
2022-10-28T07:04:02.887Z,12.46
2022-10-28T07:06:32.877Z,12.41
2022-10-28T07:09:02.392Z,12.51
2022-10-28T07:11:31.948Z,12.63
2022-10-28T07:14:01.971Z,12.71
2022-10-28T07:16:31.984Z,12.79
2022-10-28T07:19:01.486Z,12.85
2022-10-28T07:21:32.481Z,12.94
2022-10-28T07:24:02.107Z,12.92
2022-10-28T07:26:31.652Z,13.01
2022-10-28T07:29:01.321Z,13.16
2022-10-28T07:31:31.481Z,13.31
2022-10-28T07:34:01.036Z,13.48
2022-10-28T07:36:32.043Z,13.57
2022-10-28T07:39:01.622Z,13.66
2022-10-28T07:41:31.198Z,13.76
2022-10-28T07:44:00.717Z,13.83
2022-10-28T07:46:30.458Z,13.88
2022-10-28T07:49:00.165Z,14.04
2022-10-28T07:51:29.906Z,14.15
2022-10-28T07:54:00.884Z,14.15
2022-10-28T07:56:30.448Z,14.27
2022-10-28T07:59:01.260Z,14.35
2022-10-28T08:01:31.178Z,14.47
2022-10-28T08:04:00.862Z,14.56
2022-10-28T08:06:30.720Z,14.63
2022-10-28T08:09:01.620Z,14.71
2022-10-28T08:11:31.440Z,14.73
2022-10-28T08:14:02.721Z,14.79
2022-10-28T08:16:32.998Z,14.90
2022-10-28T08:19:06.820Z,14.97
2022-10-28T08:21:37.552Z,15.08
2022-10-28T08:24:08.957Z,15.19
2022-10-28T08:26:39.832Z,15.24
2022-10-28T08:29:10.622Z,15.31
2022-10-28T08:31:40.727Z,15.22
2022-10-28T08:34:10.463Z,15.30
2022-10-28T08:36:40.353Z,15.37
2022-10-28T08:39:11.365Z,15.40
2022-10-28T08:41:44.511Z,15.46
2022-10-28T08:44:31.993Z,15.52
2022-10-28T08:47:07.797Z,15.57
2022-10-28T08:49:38.860Z,15.67
2022-10-28T08:52:15.404Z,15.74
2022-10-28T08:54:51.229Z,15.76
2022-10-28T08:57:22.649Z,15.81
2022-10-28T08:59:53.984Z,15.86
2022-10-28T09:02:24.479Z,15.82
2022-10-28T09:04:57.700Z,15.88
2022-10-28T09:07:27.330Z,15.97
2022-10-28T09:09:58.965Z,16.00
2022-10-28T09:12:36.423Z,16.05
2022-10-28T09:15:18.049Z,16.08
2022-10-28T09:17:52.883Z,16.11
2022-10-28T09:20:27.678Z,16.15
2022-10-28T09:22:59.295Z,16.19
2022-10-28T09:25:34.440Z,16.25
2022-10-28T09:28:21.608Z,16.34
2022-10-28T09:30:56.418Z,16.32
2022-10-28T09:33:39.743Z,16.35
2022-10-28T09:36:14.141Z,16.42
2022-10-28T09:38:44.199Z,16.51
2022-10-28T09:41:18.597Z,16.51
2022-10-28T09:43:53.945Z,16.54
2022-10-28T09:46:25.010Z,16.59
2022-10-28T09:48:56.937Z,16.67
2022-10-28T09:51:30.168Z,16.76
2022-10-28T09:54:00.331Z,16.77
2022-10-28T09:56:31.864Z,16.84
2022-10-28T09:59:03.065Z,16.91
2022-10-28T10:01:34.917Z,16.98
2022-10-28T10:04:13.396Z,16.94
2022-10-28T10:06:44.310Z,17.01
2022-10-28T10:09:17.664Z,17.14
2022-10-28T10:11:51.603Z,17.15
2022-10-28T10:14:26.092Z,17.10
2022-10-28T10:16:57.756Z,17.18
2022-10-28T10:19:27.571Z,17.27
2022-10-28T10:21:57.091Z,17.23
2022-10-28T10:24:29.962Z,17.28
2022-10-28T10:27:02.778Z,17.32
2022-10-28T10:29:33.327Z,17.45
2022-10-28T10:32:08.161Z,17.50
2022-10-28T10:34:37.932Z,17.48
2022-10-28T10:37:15.419Z,17.43
2022-10-28T10:39:44.993Z,17.53
2022-10-28T10:42:25.540Z,17.61
2022-10-28T10:45:00.141Z,17.56
2022-10-28T10:47:30.173Z,17.63
2022-10-28T10:50:20.255Z,17.72
2022-10-28T10:52:51.183Z,17.80
2022-10-28T10:55:23.417Z,17.75
2022-10-28T10:57:54.936Z,17.71
2022-10-28T11:00:26.063Z,17.78
2022-10-28T11:02:56.284Z,17.82
2022-10-28T11:05:29.212Z,17.84
2022-10-28T11:08:07.733Z,17.85
2022-10-28T11:10:37.305Z,17.99
2022-10-28T11:13:25.543Z,18.05
2022-10-28T11:16:00.931Z,18.12
2022-10-28T11:18:39.919Z,18.09
2022-10-28T11:21:15.922Z,18.08
2022-10-28T11:23:53.006Z,17.92
2022-10-28T11:26:24.400Z,17.91
2022-10-28T11:29:02.811Z,17.82
2022-10-28T11:31:48.305Z,17.88
2022-10-28T11:34:27.523Z,17.99
2022-10-28T11:37:01.777Z,17.93
2022-10-28T11:39:34.795Z,17.86
2022-10-28T11:42:09.373Z,17.91
2022-10-28T11:44:50.034Z,17.84
2022-10-28T11:47:30.068Z,17.82
2022-10-28T11:50:14.513Z,17.75
2022-10-28T11:52:54.776Z,17.79
2022-10-28T11:55:30.270Z,17.70
2022-10-28T11:58:07.322Z,17.79
2022-10-28T12:00:51.500Z,17.96
2022-10-28T12:03:31.341Z,17.89
2022-10-28T12:06:06.500Z,17.85
2022-10-28T12:08:44.297Z,17.72
2022-10-28T12:11:19.892Z,17.70
2022-10-28T12:13:58.530Z,17.75
2022-10-28T12:16:33.028Z,17.96
2022-10-28T12:19:06.741Z,17.89
2022-10-28T12:21:37.680Z,17.78
2022-10-28T12:24:11.881Z,17.68
2022-10-28T12:26:44.173Z,17.67
2022-10-28T12:29:17.859Z,17.70
2022-10-28T12:31:50.337Z,17.86
2022-10-28T12:34:23.683Z,17.79
2022-10-28T12:36:56.073Z,17.71
2022-10-28T12:39:26.954Z,17.63
2022-10-28T12:41:59.889Z,17.73
2022-10-28T12:44:30.039Z,17.79
2022-10-28T12:47:05.018Z,17.72
2022-10-28T12:49:42.847Z,17.74
2022-10-28T12:52:18.864Z,17.68
2022-10-28T12:54:53.735Z,17.72
2022-10-28T12:57:24.971Z,17.67
2022-10-28T12:59:57.805Z,17.78
2022-10-28T13:02:32.542Z,17.80
2022-10-28T13:05:02.194Z,17.71
2022-10-28T13:07:41.437Z,17.74
2022-10-28T13:10:18.755Z,17.66
2022-10-28T13:12:59.818Z,17.61
2022-10-28T13:15:36.489Z,17.59
2022-10-28T13:18:22.484Z,17.68
2022-10-28T13:20:55.662Z,17.73
2022-10-28T13:23:31.045Z,17.62
2022-10-28T13:26:06.189Z,17.63
2022-10-28T13:28:37.948Z,17.55
2022-10-28T13:31:08.821Z,17.56
2022-10-28T13:33:40.154Z,17.53
2022-10-28T13:36:12.170Z,17.56
2022-10-28T13:38:41.935Z,17.54
2022-10-28T13:41:31.326Z,17.45
2022-10-28T13:44:18.458Z,17.38
2022-10-28T13:47:01.116Z,17.34
2022-10-28T13:49:32.544Z,17.30
2022-10-28T13:52:03.566Z,17.37
2022-10-28T13:54:34.311Z,17.35
2022-10-28T13:57:06.653Z,17.45
2022-10-28T13:59:47.978Z,17.44
2022-10-28T14:02:39.431Z,17.42
2022-10-28T14:05:11.483Z,17.37
2022-10-28T14:07:51.288Z,17.30
2022-10-28T14:10:23.684Z,17.34
2022-10-28T14:12:56.918Z,17.29
2022-10-28T14:15:29.809Z,17.25
2022-10-28T14:18:15.884Z,17.26
2022-10-28T14:20:59.118Z,17.22
2022-10-28T14:23:46.789Z,17.20
2022-10-28T14:26:16.280Z,17.13
2022-10-28T14:28:55.687Z,17.08
2022-10-28T14:31:36.875Z,17.01
2022-10-28T14:34:39.284Z,17.01
2022-10-28T14:37:28.252Z,16.96
2022-10-28T14:40:04.860Z,16.94
2022-10-28T14:42:43.190Z,16.90
2022-10-28T14:45:20.949Z,16.87
2022-10-28T14:48:08.384Z,16.84
2022-10-28T14:50:40.805Z,16.92
2022-10-28T14:53:15.293Z,16.85
2022-10-28T14:55:47.254Z,16.79
2022-10-28T14:58:23.640Z,16.76
2022-10-28T15:01:00.495Z,16.71
2022-10-28T15:03:30.447Z,16.69
2022-10-28T15:06:02.776Z,16.61
2022-10-28T15:08:33.727Z,16.57
2022-10-28T15:11:03.308Z,16.50
2022-10-28T15:13:33.823Z,16.47
2022-10-28T15:16:03.884Z,16.41
2022-10-28T15:18:34.572Z,16.37
2022-10-28T15:21:10.665Z,16.31
2022-10-28T15:23:41.561Z,16.25
2022-10-28T15:26:12.182Z,16.19
2022-10-28T15:28:42.183Z,16.13
2022-10-28T15:31:12.096Z,16.08
2022-10-28T15:33:42.244Z,16.01
2022-10-28T15:36:18.033Z,15.97
2022-10-28T15:38:50.031Z,15.90
2022-10-28T15:41:46.611Z,15.87
2022-10-28T15:44:25.833Z,15.81
2022-10-28T15:46:56.183Z,15.77
2022-10-28T15:49:32.609Z,15.70
2022-10-28T15:52:20.481Z,15.66
2022-10-28T15:54:58.291Z,15.64
2022-10-28T15:57:28.831Z,15.57
2022-10-28T16:00:16.656Z,15.53
2022-10-28T16:02:53.130Z,15.49
2022-10-28T16:05:44.929Z,15.45
2022-10-28T16:08:22.397Z,15.38
2022-10-28T16:10:55.587Z,15.33
2022-10-28T16:13:30.359Z,15.31
2022-10-28T16:16:02.563Z,15.28
2022-10-28T16:18:33.599Z,15.23
2022-10-28T16:21:05.562Z,15.19
2022-10-28T16:23:36.157Z,15.15
2022-10-28T16:26:07.309Z,15.12
2022-10-28T16:28:38.027Z,15.11
2022-10-28T16:31:10.720Z,15.10
2022-10-28T16:33:40.394Z,15.10
2022-10-28T16:36:09.962Z,15.08
2022-10-28T16:38:40.067Z,15.05
2022-10-28T16:41:15.453Z,15.04
2022-10-28T16:43:45.493Z,15.01
2022-10-28T16:46:15.459Z,14.98
2022-10-28T16:48:44.997Z,14.95
2022-10-28T16:51:16.486Z,14.89
2022-10-28T16:53:49.692Z,14.87
2022-10-28T16:56:20.639Z,14.85
2022-10-28T16:58:50.448Z,14.79
2022-10-28T17:01:21.272Z,14.71
2022-10-28T17:03:51.333Z,14.68
2022-10-28T17:06:20.838Z,14.67
2022-10-28T17:09:02.864Z,14.62
2022-10-28T17:11:36.570Z,14.46
2022-10-28T17:14:06.628Z,14.44
2022-10-28T17:16:39.295Z,14.31
2022-10-28T17:19:11.897Z,14.28
2022-10-28T17:21:42.710Z,14.29
2022-10-28T17:24:12.329Z,14.24
2022-10-28T17:26:44.183Z,14.17
2022-10-28T17:29:13.724Z,14.10
2022-10-28T17:31:43.298Z,14.06
2022-10-28T17:34:13.304Z,13.96
2022-10-28T17:36:42.823Z,13.87
2022-10-28T17:39:17.761Z,13.84
2022-10-28T17:41:50.789Z,13.71
2022-10-28T17:44:20.557Z,13.69
2022-10-28T17:46:50.141Z,13.70
2022-10-28T17:49:19.739Z,13.57
2022-10-28T17:51:49.516Z,13.60
2022-10-28T17:54:19.196Z,13.56
2022-10-28T17:56:50.317Z,13.56
2022-10-28T17:59:19.982Z,13.42
2022-10-28T18:01:49.886Z,13.38
2022-10-28T18:04:20.308Z,13.38
2022-10-28T18:06:50.033Z,13.30
2022-10-28T18:09:19.796Z,13.21
2022-10-28T18:11:50.869Z,13.19
2022-10-28T18:14:21.085Z,13.16
2022-10-28T18:16:51.341Z,13.15
2022-10-28T18:19:20.982Z,13.12
2022-10-28T18:21:50.958Z,13.12
2022-10-28T18:24:23.370Z,13.09
2022-10-28T18:26:57.974Z,13.04
2022-10-28T18:29:27.711Z,12.87
2022-10-28T18:31:57.376Z,13.00
2022-10-28T18:34:27.183Z,12.97
2022-10-28T18:36:56.897Z,12.92
2022-10-28T18:39:26.644Z,12.94
2022-10-28T18:41:57.615Z,12.92
2022-10-28T18:44:32.018Z,12.83
2022-10-28T18:47:01.979Z,12.92
2022-10-28T18:49:31.721Z,12.92
2022-10-28T18:52:02.402Z,12.75
2022-10-28T18:54:33.545Z,12.62
2022-10-28T18:57:04.619Z,12.51
2022-10-28T18:59:35.228Z,12.59
2022-10-28T19:02:08.921Z,12.59
2022-10-28T19:04:42.060Z,12.58
2022-10-28T19:07:11.776Z,12.67
2022-10-28T19:09:41.388Z,12.72
2022-10-28T19:12:13.719Z,12.59
2022-10-28T19:14:43.801Z,12.49
2022-10-28T19:17:13.863Z,12.42
2022-10-28T19:19:43.900Z,12.46
2022-10-28T19:22:13.662Z,12.35
2022-10-28T19:24:43.320Z,12.27
2022-10-28T19:27:14.466Z,12.26
2022-10-28T19:29:44.438Z,12.42
2022-10-28T19:32:14.201Z,12.32
2022-10-28T19:34:44.205Z,12.34
2022-10-28T19:37:15.303Z,12.33
2022-10-28T19:39:44.944Z,12.36
2022-10-28T19:42:15.995Z,12.43
2022-10-28T19:44:45.493Z,12.48
2022-10-28T19:47:15.087Z,12.47
2022-10-28T19:49:44.646Z,12.47
2022-10-28T19:52:14.168Z,12.45
2022-10-28T19:54:43.665Z,12.34
2022-10-28T19:59:49.106Z,12.08
2022-10-28T20:02:18.778Z,11.99
2022-10-28T20:04:48.873Z,12.04
2022-10-28T20:07:19.997Z,11.88
2022-10-28T20:09:49.663Z,11.78
2022-10-28T20:12:19.709Z,11.77
2022-10-28T20:14:51.154Z,11.63
2022-10-28T20:17:21.608Z,11.65
2022-10-28T20:19:51.240Z,11.65
2022-10-28T20:22:20.967Z,11.45
2022-10-28T20:24:50.599Z,11.45
2022-10-28T20:27:20.180Z,11.43
2022-10-28T20:29:51.109Z,11.62
2022-10-28T20:32:22.383Z,11.61
2022-10-28T20:34:51.986Z,11.57
2022-10-28T20:37:22.788Z,11.43
2022-10-28T20:39:54.977Z,11.52
2022-10-28T20:42:27.361Z,11.61
2022-10-28T20:44:58.233Z,11.56
2022-10-28T20:47:28.085Z,11.57
2022-10-28T20:49:57.849Z,11.57
2022-10-28T20:52:27.594Z,11.39
2022-10-28T20:54:57.109Z,11.43
2022-10-28T20:57:26.760Z,11.37
2022-10-28T20:59:57.952Z,11.29
2022-10-28T21:02:27.603Z,11.29
2022-10-28T21:04:57.468Z,11.24
2022-10-28T21:07:26.955Z,11.29
2022-10-28T21:09:57.715Z,11.17
2022-10-28T21:12:28.083Z,11.11
2022-10-28T21:14:59.449Z,11.00
2022-10-28T21:17:30.302Z,10.95
2022-10-28T21:22:34.517Z,10.93
2022-10-28T21:25:04.454Z,10.85
2022-10-28T21:27:34.293Z,10.82
2022-10-28T21:30:05.705Z,10.82
2022-10-28T21:32:37.335Z,10.82
2022-10-28T21:35:07.721Z,10.86
2022-10-28T21:37:37.220Z,10.77
2022-10-28T21:40:07.358Z,10.61
2022-10-28T21:42:37.033Z,10.55
2022-10-28T21:45:08.781Z,10.52
2022-10-28T21:47:38.406Z,10.51
2022-10-28T21:50:08.421Z,10.49
2022-10-28T21:52:38.205Z,10.46
2022-10-28T21:55:20.104Z,10.43
2022-10-28T21:57:50.544Z,10.25
2022-10-28T22:00:21.508Z,10.27
2022-10-28T22:02:52.057Z,10.28
2022-10-28T22:05:21.790Z,10.28
2022-10-28T22:07:51.301Z,10.38
2022-10-28T22:10:20.932Z,10.23
2022-10-28T22:12:51.399Z,10.14
2022-10-28T22:15:23.037Z,10.20
2022-10-28T22:17:52.763Z,10.31
2022-10-28T22:20:23.099Z,10.22
2022-10-28T22:22:52.758Z,10.29
2022-10-28T22:25:22.489Z,10.19
2022-10-28T22:27:52.012Z,10.15
2022-10-28T22:30:22.905Z,10.18
2022-10-28T22:32:52.631Z,10.08
2022-10-28T22:35:22.351Z,10.14
2022-10-28T22:37:51.916Z,10.04
2022-10-28T22:40:21.493Z,10.04
2022-10-28T22:42:51.061Z,10.06
2022-10-28T22:45:20.622Z,10.04
2022-10-28T22:47:52.338Z,10.01
2022-10-28T22:50:23.335Z,9.77
2022-10-28T22:52:52.990Z,9.86
2022-10-28T22:55:23.835Z,9.89
2022-10-28T22:57:54.300Z,9.87
2022-10-28T23:00:24.386Z,9.78
2022-10-28T23:02:57.482Z,9.72
2022-10-28T23:05:27.530Z,9.63
2022-10-28T23:07:59.431Z,9.81
2022-10-28T23:10:29.692Z,9.46
2022-10-28T23:13:00.739Z,9.58
2022-10-28T23:15:31.094Z,9.71
2022-10-28T23:18:02.561Z,9.52
2022-10-28T23:20:32.121Z,9.55
2022-10-28T23:23:01.585Z,9.42
2022-10-28T23:25:31.296Z,9.32
2022-10-28T23:28:00.831Z,9.43
2022-10-28T23:30:30.362Z,9.53
2022-10-28T23:33:00.066Z,9.50
2022-10-28T23:35:31.301Z,9.26
2022-10-28T23:38:01.199Z,9.33
2022-10-28T23:40:30.973Z,9.32
2022-10-28T23:43:00.505Z,9.32
2022-10-28T23:45:29.972Z,9.16
2022-10-28T23:47:59.493Z,9.06
2022-10-28T23:50:29.294Z,9.09
2022-10-28T23:53:01.030Z,9.10
2022-10-28T23:55:30.635Z,8.98
2022-10-28T23:58:00.196Z,9.03
